Race Results for
Kingsburg Criterium
Kingsburg, CA
(Event Information)
View By:
Criterium on 10/23/2010

Note: Ranking points are NOT upgrade points. An explanation of ranking points can be found here.


Men - Cat4/5 - Master - 30-99

 Place Points NameCity, StateTime USAC #BibTeam
1350.43Jeremiah Root   Fresno, CA00:00:00.00 30525  747 Stevens Bicycle Racing
2357.48nathan magsig   Clovis, CA00:00:00.00 307805  719 Central Valley Cycling
3Mike CASPER   00:00:00.00  708 
4371.58William Ruffner   Morgan Hill, CA00:00:00.00 220929  723 TBS Racing Team
5378.63David Glennon   Fresno, CA00:00:00.00 287141  714 Rubber Soul/CSC
6385.68Jeff Gledhill   Clovis, CA00:00:00.00 282233  713 Rubber Soul/ CSC Racing
7392.73Ralph Rivas   Cudahy, CA00:00:00.00 282806  722 
8399.78Jason Oxford   Fresno, CA00:00:00.00 277338  735 Vapor Racing
9406.83Rowel (Rob) Palisoc   Berkeley, CA00:00:00.00 195972  721 Team Oakland
10413.88Wyatt Garcia   Atwater, CA00:00:00.00 287655  712 Team Mason Thomas-TMT
11420.93Blake James   Clovis, CA00:00:00.00 326254  715 Vapor
12427.98Matthew Johnston   Merced, CA00:00:00.00 304638  716 Team Mason Thomas
13435.03Robert Woodward   Madera, CA00:00:00.00 303875  726 Central Valley Cycling
14442.08Eric Henson   Visalia, CA00:00:00.00 330060  742 SSC
15449.13Rick Berry   Kingsburg, CA00:00:00.00 271131  703 Rubber Soul/CSC Racing Team
16456.18Sean Smith   Fresno, CA00:00:00.00 302246  729 Vapor Racing
17463.23Tom Cesar   Fresno, CA00:00:00.00 304936  730 Vapor Racing
18Kyle MASON   00:00:00.00  746 CSS
19Daryl KATOCH   00:00:00.00  717 
20484.38James Stites   Clovis, CA00:00:00.00 255908  724 
21491.43Gonzalo Carrillo   Fremont, CA00:00:00.00 308032  707 Team Fremont/FFBC powered by C
22498.48Patrick Doles   Kingsburg, CA00:00:00.00 303028  748 Sierra Pacific Racing
23505.53Jodi Birrell   Morgan Hill, CA00:00:00.00 260006  704 TBS Racing
24Barry KRUPOWICZ   00:00:00.00  718 
25519.63Chris Furgiuele   San Francisco, CA00:00:00.00 310646  711 
26526.68Jeff Sands   Fresno, CA00:00:00.00 333426  739 Vapor Racing
27533.73Matt Barr   Clovis, CA00:00:00.00 82226  702 stevens bicycle racing
28540.78Lance Burger   Fresno, CA00:00:00.00 300211  706 Rubber Soul/CSC Racing Team
29Anthony BARBARITE   00:00:00.00  738 CSC
30554.88Steve Ball   Napa, CA00:00:00.00 59338  701 Eagle Racing Team
31561.93Jon Stewart   Fresno, CA00:00:00.00 179851  732 Stevens Bicycle Racing
32568.98Vince Gagliardi   Fresno, CA00:00:00.00 303540  728 Unattached
33576.03Justin Morgan   Fresno, CA00:00:00.00 238135  741 Stevens Bicycle Racing
34Shane FRANDSEN   00:00:00.00  731 
35590.13Igor Bulatov   Fresno, CA00:00:00.00 304326  705 Rubber Soul/CSC
DNSJody Cummings   Fresno, CA00:00:00.00 298802  709 Rubber Soul / CSC Race Team
DNSMatthew Esselstrom   Modesto, CA00:00:00.00 277510  710 Fun Sport Bikes Cycling Team
DNSPatrick O'Rourke   Fresno, CA00:00:00.00 132197  720 Stevens Bicycle Racing
DQJeff Watson   Elk Grove, CA00:00:00.00 293136  725 Team Bicycles Plus/Sierra Neva
DNFSteven Decker   Fresno, CA00:00:00.00 274418  727 Rubber Soul/CSC Racing Team
DNFJoshua Houssiere   Fresno, CA00:00:00.00 66056  733 Stevens Bicycle Racing
DNFLeland Jones   Fresno, CA00:00:00.00 107204  734 Vapor Racing
DNFTomas Ovalle   Fresno, CA00:00:00.00 207280  736 Central Valley Cycling
DNFChris KLIEWER   00:00:00.00  740 Vapor
DNFScott Harvey   Kingsburg, CA00:00:00.00 286981  743 Vapor Racing
DNFDaniel Felix   Fresno, CA00:00:00.00 255819  744 Southern Sierra Cyclists
DNFRalph Rivas   Cudahy, CA00:00:00.00 282806  745 Unattached

Men - Cat1/2/3

 Place Points NameCity, StateTime USAC #BibTeam
1Logan LOADER   00:00:00.00  319 Lucemie Espoir
2190.69Robert Newman   Los Gatos, CA00:00:00.00 53327  314 Williams Cycling
3212.45Lucas Binder   San Diego, CA00:00:00.00 262024  302 Cal Cycling
4234.21Nathan Freed   Tahoe City, CA00:00:00.00 86484  321 TEAM CLIF BAR Cycling
5255.97Martin Acosta   East Palo Alto, CA00:00:00.00 291277  318 Alto Velo Racing Club
6277.73Dirk Himley   San Jose, CA00:00:00.00 86797  317 Echelon Gran Fondo/Zteam
7299.49John Parson   Covington, LA00:00:00.00 236117  326 Bike Bakersfield Cycling Team/
8321.25Joe Galloway   Exeter, CA00:00:00.00 242644  304 Sierra Pacific Racing
9343.01Justin Ishida   Berkeley, CA00:00:00.00 274183  328 Unattached
10364.77Tim Butler   Clovis, CA00:00:00.00 239746  323 Sierra Pacific Racing
DNSSteven Grusis   Madera, CA00:00:00.00 60756  305 Rubber Soul/CSC Racing Team
DNSRobert Orcutt   Scotts Valley, CA00:00:00.00 269340  308 Webcor/Alto Velo
DNSMurat Ozgur   Los Altos, CA00:00:00.00 41335  309 Squadra Ovest Cycling
DNPJohn Bergmann   Albany, CA00:00:00.00 187522  301 Team Clif Bar
DNPJohn Devere   Madera, CA00:00:00.00 297594  303 Sierra Pacific Racing/Hammer N
DNPRoger Hogan   Fresno, CA00:00:00.00 285192  306 California Giant Cycling
DNPJ Lemons   Hanford, CA00:00:00.00 274625  307 Rubber Soul/CSC Racing Team
DNPAndrew Robertson   Fresno, CA00:00:00.00 169555  310 Rubber Soul/CSC Racing Team
DNPMichael Hernandez   Oakland, CA00:00:00.00 136641  311 Kinetic Cycles/GBI
DNPElizabeth Newell   Oakland, CA00:00:00.00 252152  312 MRBerkeley.com p/b Bell Lap
DNPMark Sasser   Fresno, CA00:00:00.00 31332  313 Sierra Pacific Racing
DNPAaron Hunter   Santa Cruz, CA00:00:00.00 215194  315 Kinetic Cycles/GBI
DNPGreg Tripoli   Hanford, CA00:00:00.00 281420  316 Central Sierra Cyclists
DNPBrandon Trafton   Sacramento, CA00:00:00.00 240033  320 California Giant Berry Farms/S
DNPJoseph Pasqualetto   Rancho Cucamonga, CA00:00:00.00 45772  322 Bicycle Johns Serious Cycling
DNPTammy Wildgoose   Temecula00:00:00.00 272022  324 Paramount Racing
DNPLutz Braun   Clovis, CA00:00:00.00 258096  325 Central Valley Cycling
DNPRobert Pasco   Belmont, CA00:00:00.00 136970  327 SAFEWAY/Bicycles Plus/PureRed
DNPSydney Newsom   Fresno, CA00:00:00.00 258955  329 Sierra Pacific Racing
DNPCurtis Eastin   Clovis, CA00:00:00.00 40657  330 Sierra Pacific Racing
DNPRuste Jenkins   Fresno, CA00:00:00.00 304436  578 Stevens Bicycle Racing

Men - Cat1/2/3 - Master - 30-99

 Place Points NameCity, StateTime USAC #BibTeam
1216.25Stephen Gregorios   Long Beach, CA00:00:00.00 135047  614 Radsport Cycling Team
2233.62Joe Galloway   Exeter, CA00:00:00.00 242644  603 Sierra Pacific Racing
3250.99Michael Hernandez   Oakland, CA00:00:00.00 136641  615 Kinetic Cycles/GBI
4268.36John Bergmann   Albany, CA00:00:00.00 187522  617 TEAM CLIF BAR Cycling
5285.73Robert Pasco   Belmont, CA00:00:00.00 136970  620 SAFEWAY/Bicycles Plus/PureRed
6303.10Greg Tripoli   Hanford, CA00:00:00.00 281420  610 Rubber Soul/CSC Racing Team
7320.47Andrew Robertson   Fresno, CA00:00:00.00 169555  609 Rubber Soul/CSC Racing Team
8337.84Guy Van Natta   Clovis, CA00:00:00.00 218823  611 Central Valley Cycling
9355.21Andre Tenthorey   Granite Bay, CA00:00:00.00 76561  618 Shriners Quick Step
10372.58Brent Majors   Clovis, CA00:00:00.00 286527  613 Rubber Soul/CSC Racing Team
11389.95Scott Hellam   Fresno, CA00:00:00.00 287510  605 Rubber Soul/CSC
12407.32John Devere   Madera, CA00:00:00.00 297594  602 Sierra Pacific Racing/Hammer N
13424.69German Villa   San Lorenzo, CA00:00:00.00 224232  619 Berkeley Bicycle Club (BBC)
14442.06Robert White   Morgan Hill, CA00:00:00.00 97873  612 TBS Racing
15459.43Robert Napieralski   Springville, CA00:00:00.00 271499  607 Yokohl Ranch/Sierra Bicycle We
16476.80Joseph Pasqualetto   Rancho Cucamonga, CA00:00:00.00 45772  621 Bicycle Johns Serious Cycling
17494.17Curtis Eastin   Clovis, CA00:00:00.00 40657  622 Sierra Pacific Racing
DNSSteven Grusis   Madera, CA00:00:00.00 60756  604 Rubber Soul/CSC Racing Team
DNSMurat Ozgur   Los Altos, CA00:00:00.00 41335  608 Squadra Ovest Cycling
DNFShaun Bagley   Visalia, CA00:00:00.00 60730  601 Sierra Pacific Racing
DNFJ Lemons   Hanford, CA00:00:00.00 274625  606 Rubber Soul/CSC Racing Team
DNFEric Robertson   Visalia, CA00:00:00.00 58116  616 Yokohl Ranch/Sierra Bicycle We

Men - Cat1/2/3 - Master - 40-99

 Place Points NameCity, StateTime USAC #BibTeam
1197.44Robert Newman   Los Gatos, CA00:00:00.00 53327  820 Williams Cycling
2212.54Dirk Himley   San Jose, CA00:00:00.00 86797  805 Echelon Gran Fondo/Zteam
3227.64Michael Hernandez   Oakland, CA00:00:00.00 136641  813 Kinetic Cycles/GBI
4242.74Guy Van Natta   Clovis, CA00:00:00.00 218823  809 Central Valley Cycling
5257.84Edward Lund   Fresno, CA00:00:00.00 276566  816 Central Valley Cycling
6272.94Shaun Bagley   Visalia, CA00:00:00.00 60730  801 Sierra Pacific Racing
7288.04Gregory McKinney   Fresno, CA00:00:00.00 196950  822 Central Valley Cycling
8303.14Andre Tenthorey   Granite Bay, CA00:00:00.00 76561  825 Shriners Quick Step
9318.24Robert Pasco   Belmont, CA00:00:00.00 136970  815 SAFEWAY/Bicycles Plus/PureRed
10333.34Aaron Hunter   Santa Cruz, CA00:00:00.00 215194  821 Kinetic Cycles/GBI
11348.44Brent Majors   Clovis, CA00:00:00.00 286527  811 Rubber Soul/CSC Racing Team
12363.54Curtis Eastin   Clovis, CA00:00:00.00 40657  824 Sierra Pacific Racing
13378.64Stephen Gregorios   Long Beach, CA00:00:00.00 135047  812 Radsport Cycling Team
14393.74John Devere   Madera, CA00:00:00.00 297594  802 Sierra Pacific Racing/Hammer N
15408.84Scott Hellam   Fresno, CA00:00:00.00 287510  804 Rubber Soul/CSC
16423.94German Villa   San Lorenzo, CA00:00:00.00 224232  823 Berkeley Bicycle Club (BBC)
17439.04Andrew Robertson   Fresno, CA00:00:00.00 169555  808 Rubber Soul/CSC Racing Team
18454.14Eric Robertson   Visalia, CA00:00:00.00 58116  814 Yokohl Ranch/Sierra Bicycle We
19469.24Mark Sasser   Fresno, CA00:00:00.00 31332  817 Sierra Pacific Racing
20484.34George Fuentes   Bakersfield, CA00:00:00.00 223842  819 Bike Bakersfield Cycling Team/
21499.44Robert White   Morgan Hill, CA00:00:00.00 97873  810 TBS Racing
DNSSteven Grusis   Madera, CA00:00:00.00 60756  803 Rubber Soul/CSC Racing Team
DNFRoger Hogan   Fresno, CA00:00:00.00 285192  806 California Giant Cycling
DNFRobert Napieralski   Springville, CA00:00:00.00 271499  807 Yokohl Ranch/Sierra Bicycle We
DNFRobert Kern (Cat3)   Fresno, CA00:00:00.00 256487  818 Vapor

Men - Cat 5

 Place Points NameCity, StateTime USAC #BibTeam
1Nathanial BARROWS   00:00:00.00  534 SPOC
2544.51Blake James   Clovis, CA00:00:00.00 326254  510 Vapor
3555.88jason horsman   Clovis, CA00:00:00.00 328264  508 
4Tomas MUNDARAIN   00:00:00.00  513 
5578.62Stephen Shafer   Springville, CA00:00:00.00 318242  517 Southern Sierra Cyclists
6589.99Joshua Webb   Lemoore, CA00:00:00.00 300157  519 
DNSJody Cummings   Fresno, CA00:00:00.00 298802  505 Rubber Soul / CSC Race Team
DNPPeter STAVRIANOVDAKIS   00:00:00.00  524 
DNPUNKNOWN RIDER   00:00:00.00  528 
DNPUNKNOWN RIDER   00:00:00.00  530 
DNPUNKNOWN RIDER   00:00:00.00  531 
DNPMonte Austin   Kingsburg, CA00:00:00.00 96049  501 
DNPLance Burger   Fresno, CA00:00:00.00 300211  502 Rubber Soul/CSC Racing Team
DNPChad COVINGTON   00:00:00.00  503 
DNPJustin Cruz   Long Beach, CA00:00:00.00 316766  504 
DNPChris Furgiuele   San Francisco, CA00:00:00.00 310646  506 
DNPRobert GIBSON   00:00:00.00  507 
DNPNash JACQUEZ   00:00:00.00  509 
DNPBarry KRUPOWICZ   00:00:00.00  511 
DNPKyle MASON   00:00:00.00  512 
DNPTyler Pearce   Clovis, CA00:00:00.00 368437  514 
DNPBrandon SAUBERT   00:00:00.00  515 
DNPDave SCALZO   00:00:00.00  516 
DNPSean Smith   Fresno, CA00:00:00.00 302246  518 
DNPMike CASPER   00:00:00.00  523 
DNPVince Gagliardi   Fresno, CA00:00:00.00 303540  525 Vapor
DNPBryce MAJORS   00:00:00.00  526 
DNPBill TUCKER   00:00:00.00  527 
DNPEric Henson   Visalia, CA00:00:00.00 330060  529 
DNPTom Cesar   Fresno, CA00:00:00.00 304936  532 Vapor Racing
DNPJason PETERES   00:00:00.00  533 
DNPTyler HANSON   00:00:00.00  535 Vapor
DNPDaryl KATOCH   00:00:00.00  536 

Men - Cat 4

 Place Points NameCity, StateTime USAC #BibTeam
1344.80Steven Sperling   Grand Junction, CO00:00:00.00 204146  425 Team TIBCO II
2353.15Rowel (Rob) Palisoc   Berkeley, CA00:00:00.00 195972  418 Team Oakland
3361.50nathan magsig   Clovis, CA00:00:00.00 307805  417 Central Valley Cycling
4369.85Paul Yun   San Luis Obispo, CA00:00:00.00 288635  423 Slo Nexus / Gym One
5378.20Jacob Gerhardt   Atascadero, CA00:00:00.00 305079  412 
6386.55William Ruffner   Morgan Hill, CA00:00:00.00 220929  419 TBS Racing Team
7394.90cody greer   Sanger, CA00:00:00.00 309590  415 Central Sierra Cyclists
8403.25Jeff Watson   Elk Grove, CA00:00:00.00 293136  420 Team Bicycles Plus/Sierra Neva
9411.60nick baird   Sanger, CA00:00:00.00 309596  402 Central Sierra Cyclists
10419.95Dustin Cottle   Arroyo Grande, CA00:00:00.00 305586  426 Rio Strada Racing
11428.30Wyatt Garcia   Atwater, CA00:00:00.00 287655  411 Team Mason Thomas-TMT
12436.65Matthew Johnston   Merced, CA00:00:00.00 304638  416 Team Mason Thomas
13445.00christopher pimentel   Clovis, CA00:00:00.00 304879  424 CVC
14453.35Steve Ball   Napa, CA00:00:00.00 59338  403 Eagle Racing Team
15461.70David Glennon   Fresno, CA00:00:00.00 287141  414 Rubber Soul/CSC
16470.05Steven Decker   Fresno, CA00:00:00.00 274418  409 Rubber Soul/CSC
17478.40Jeff Byrd   Salinas, CA00:00:00.00 268757  407 VOS
18486.75Jason Oxford   Fresno, CA00:00:00.00 277338  430 Vapor Racing
19495.10Gonzalo Carrillo   Fremont, CA00:00:00.00 308032  408 Team Fremont/FFBC powered by C
20503.45Robert Woodward   Madera, CA00:00:00.00 303875  422 Central Valley Cycling
21511.80Joshua Houssiere   Fresno, CA00:00:00.00 66056  428 Stevens Bicycle Racing
22520.15Jon Stewart   Fresno, CA00:00:00.00 179851  427 Stevens Bicycle Racing
23528.50Jodi Birrell   Morgan Hill, CA00:00:00.00 260006  405 TBS Racing
24536.85Cesar Anaya   Fresno, CA00:00:00.00 241922  401 Rubber Soul/CSC Racing Team
25545.20Leland Jones   Fresno, CA00:00:00.00 107204  429 Vapor Racing
26553.55Justin Morgan   Fresno, CA00:00:00.00 238135  433 Stevens Bicycle Racing
27561.90Jeff Gledhill   Clovis, CA00:00:00.00 282233  413 Rubber Soul/ CSC Racing
DNSRick Berry   Kingsburg, CA00:00:00.00 271131  404 Rubber Soul/CSC Racing Team
DNSMatthew Esselstrom   Modesto, CA00:00:00.00 277510  410 Fun Sport Bikes Cycling Team
DNSChristopher White   Salinas, CA00:00:00.00 297747  421 Velo Club Monterey Inc.
DNFIgor Bulatov   Fresno, CA00:00:00.00 304326  406 Rubber Soul/CSC

Women - Cat1/2/3/4

 Place Points NameCity, StateTime USAC #BibTeam
1319.59Elizabeth Newell   Oakland, CA00:00:00.00 252152  577 MRBerkeley.com p/b Bell Lap
2361.83Tammy Wildgoose   Temecula00:00:00.00 272022  580 Paramount Racing
3404.07Ruste Jenkins   Fresno, CA00:00:00.00 304436  578 Stevens Bicycle Racing
4446.31Trisha Moyer   Bishop, CA00:00:00.00 315144  576 VAPOR
5488.55Misha Scovill   Fresno, CA00:00:00.00 302962  579 Unattached

Report missing or incorrect license numbers

Volkswagen
ShimanoUSACDFCUOREBonk BreakerSpySierra Nevada
UCI USA Cycling is the official governing body for all disciplines of competitive cycling in the United States. The 501c3, membership-based organization aims both to achieve sustained success in international cycling competition and to grow competitive cycling in America while delivering an exceptional customer experience.
View Children's Online Privacy Protection Policy
US Olympic Committee